createdAt,value
2022-09-10T00:00:25.139Z,21.85
2022-09-10T00:02:57.722Z,21.82
2022-09-10T00:05:27.794Z,21.81
2022-09-10T00:07:58.414Z,21.76
2022-09-10T00:10:28.162Z,21.69
2022-09-10T00:12:57.943Z,21.64
2022-09-10T00:15:27.685Z,21.59
2022-09-10T00:18:00.060Z,21.58
2022-09-10T00:20:29.919Z,21.59
2022-09-10T00:22:59.664Z,21.58
2022-09-10T00:25:33.285Z,21.56
2022-09-10T00:28:03.195Z,21.60
2022-09-10T00:30:33.212Z,21.61
2022-09-10T00:33:06.119Z,21.59
2022-09-10T00:35:35.965Z,21.57
2022-09-10T00:38:06.667Z,21.55
2022-09-10T00:40:37.636Z,21.53
2022-09-10T00:43:14.430Z,21.54
2022-09-10T00:45:46.826Z,21.55
2022-09-10T00:48:23.531Z,21.53
2022-09-10T00:50:54.978Z,21.49
2022-09-10T00:53:30.979Z,21.45
2022-09-10T00:56:05.058Z,21.42
2022-09-10T00:58:35.484Z,21.44
2022-09-10T01:01:06.448Z,21.44
2022-09-10T01:03:39.202Z,21.45
2022-09-10T01:06:10.712Z,21.46
2022-09-10T01:08:40.652Z,21.46
2022-09-10T01:11:27.162Z,21.42
2022-09-10T01:14:12.582Z,21.39
2022-09-10T01:16:51.713Z,21.36
2022-09-10T01:19:50.964Z,21.35
2022-09-10T01:22:34.010Z,21.33
2022-09-10T01:25:10.932Z,21.29
2022-09-10T01:27:47.689Z,21.24
2022-09-10T01:30:22.195Z,21.22
2022-09-10T01:33:02.298Z,21.24
2022-09-10T01:35:41.556Z,21.22
2022-09-10T01:38:15.881Z,21.19
2022-09-10T01:40:46.731Z,21.18
2022-09-10T01:43:23.648Z,21.15
2022-09-10T01:46:14.194Z,21.13
2022-09-10T01:49:06.673Z,21.12
2022-09-10T01:51:49.155Z,21.11
2022-09-10T01:54:35.360Z,21.12
2022-09-10T01:57:13.494Z,21.13
2022-09-10T01:59:54.393Z,21.15
2022-09-10T02:02:28.831Z,21.17
2022-09-10T02:05:01.633Z,21.17
2022-09-10T02:07:35.022Z,21.17
2022-09-10T02:10:08.412Z,21.14
2022-09-10T02:12:44.786Z,21.13
2022-09-10T02:15:38.876Z,21.14
2022-09-10T02:18:14.690Z,21.14
2022-09-10T02:20:45.459Z,21.11
2022-09-10T02:23:19.680Z,21.10
2022-09-10T02:25:50.810Z,21.08
2022-09-10T02:28:20.685Z,21.05
2022-09-10T02:30:53.082Z,21.00
2022-09-10T02:33:22.990Z,20.97
2022-09-10T02:35:53.826Z,20.98
2022-09-10T02:38:24.463Z,20.99
2022-09-10T02:40:55.743Z,21.00
2022-09-10T02:43:26.968Z,20.98
2022-09-10T02:46:02.522Z,20.95
2022-09-10T02:48:32.531Z,20.94
2022-09-10T02:51:02.795Z,20.94
2022-09-10T02:53:33.143Z,20.92
2022-09-10T02:56:07.730Z,20.90
2022-09-10T02:58:39.053Z,20.87
2022-09-10T03:01:14.915Z,20.81
2022-09-10T03:03:46.012Z,20.76
2022-09-10T03:06:15.828Z,20.77
2022-09-10T03:08:45.642Z,20.77
2022-09-10T03:11:16.718Z,20.79
2022-09-10T03:13:47.957Z,20.79
2022-09-10T03:16:21.226Z,20.80
2022-09-10T03:18:52.079Z,20.80
2022-09-10T03:21:25.215Z,20.78
2022-09-10T03:23:58.258Z,20.77
2022-09-10T03:26:32.080Z,20.78
2022-09-10T03:29:02.913Z,20.78
2022-09-10T03:31:40.321Z,20.71
2022-09-10T03:34:10.467Z,20.72
2022-09-10T03:36:40.274Z,20.70
2022-09-10T03:39:12.660Z,20.68
2022-09-10T03:41:42.491Z,20.65
2022-09-10T03:44:12.358Z,20.64
2022-09-10T03:46:45.603Z,20.65
2022-09-10T03:49:18.435Z,20.66
2022-09-10T03:51:48.447Z,20.65
2022-09-10T03:54:19.366Z,20.67
2022-09-10T03:56:49.611Z,20.65
2022-09-10T03:59:19.501Z,20.66
2022-09-10T04:01:52.313Z,20.62
2022-09-10T04:04:23.228Z,20.60
2022-09-10T04:06:55.427Z,20.57
2022-09-10T04:09:28.377Z,20.56
2022-09-10T04:11:58.935Z,20.55
2022-09-10T04:14:29.955Z,20.53
2022-09-10T04:17:04.529Z,20.52
2022-09-10T04:19:35.472Z,20.53
2022-09-10T04:22:05.831Z,20.51
2022-09-10T04:24:35.755Z,20.48
2022-09-10T04:27:08.177Z,20.44
2022-09-10T04:29:38.139Z,20.43
2022-09-10T04:32:10.716Z,20.39
2022-09-10T04:34:40.536Z,20.39
2022-09-10T04:37:10.399Z,20.37
2022-09-10T04:39:40.490Z,20.35
2022-09-10T04:42:10.378Z,20.35
2022-09-10T04:44:40.493Z,20.33
2022-09-10T04:47:12.991Z,20.26
2022-09-10T04:49:43.556Z,20.25
2022-09-10T04:52:14.407Z,20.24
2022-09-10T04:54:44.228Z,20.21
2022-09-10T04:57:15.125Z,20.18
2022-09-10T04:59:45.466Z,20.18
2022-09-10T05:02:19.018Z,20.15
2022-09-10T05:04:49.298Z,20.20
2022-09-10T05:07:19.123Z,20.20
2022-09-10T05:09:49.004Z,20.19
2022-09-10T05:12:20.072Z,20.19
2022-09-10T05:14:49.834Z,20.18
2022-09-10T05:17:22.237Z,20.11
2022-09-10T05:19:52.117Z,20.11
2022-09-10T05:22:28.548Z,20.17
2022-09-10T05:25:03.643Z,20.24
2022-09-10T05:27:35.468Z,20.30
2022-09-10T05:30:05.911Z,20.36
2022-09-10T05:32:38.520Z,20.41
2022-09-10T05:35:10.972Z,20.48
2022-09-10T05:37:43.734Z,20.53
2022-09-10T05:40:16.643Z,20.60
2022-09-10T05:42:47.041Z,20.71
2022-09-10T05:45:18.802Z,20.83
2022-09-10T05:47:53.078Z,20.94
2022-09-10T05:50:26.510Z,21.06
2022-09-10T05:52:56.750Z,21.15
2022-09-10T05:55:30.470Z,21.12
2022-09-10T05:58:00.347Z,21.20
2022-09-10T06:00:30.420Z,21.20
2022-09-10T06:03:06.067Z,21.29
2022-09-10T06:05:44.480Z,21.42
2022-09-10T06:08:15.484Z,21.48
2022-09-10T06:10:57.445Z,21.52
2022-09-10T06:13:29.839Z,21.64
2022-09-10T06:16:00.342Z,21.66
2022-09-10T06:18:34.692Z,21.80
2022-09-10T06:21:26.196Z,21.89
2022-09-10T06:23:58.138Z,21.97
2022-09-10T06:26:31.253Z,22.05
2022-09-10T06:29:06.260Z,22.08
2022-09-10T06:31:37.489Z,22.09
2022-09-10T06:34:11.643Z,22.20
2022-09-10T06:36:42.048Z,22.26
2022-09-10T06:39:11.916Z,22.37
2022-09-10T06:41:51.216Z,22.51
2022-09-10T06:44:56.324Z,22.63
2022-09-10T06:48:34.709Z,22.79
2022-09-10T06:50:56.109Z,22.94
2022-09-10T06:53:33.426Z,23.03
2022-09-10T06:56:05.976Z,23.05
2022-09-10T06:58:39.253Z,23.04
2022-09-10T07:01:14.147Z,23.06
2022-09-10T07:03:48.296Z,23.17
2022-09-10T07:06:23.220Z,23.28
2022-09-10T07:08:59.674Z,23.36
2022-09-10T07:11:39.274Z,23.42
2022-09-10T07:14:14.438Z,23.47
2022-09-10T07:16:46.369Z,23.58
2022-09-10T07:19:17.778Z,23.66
2022-09-10T07:21:51.363Z,23.72
2022-09-10T07:24:21.965Z,23.84
2022-09-10T07:27:07.183Z,23.97
2022-09-10T07:29:38.767Z,24.11
2022-09-10T07:32:13.884Z,24.19
2022-09-10T07:34:44.256Z,24.31
2022-09-10T07:37:18.308Z,24.44
2022-09-10T07:39:49.594Z,24.58
2022-09-10T07:42:20.159Z,24.67
2022-09-10T07:44:51.256Z,24.78
2022-09-10T07:47:21.713Z,24.85
2022-09-10T07:49:52.910Z,24.91
2022-09-10T07:52:28.110Z,24.93
2022-09-10T07:54:58.978Z,25.02
2022-09-10T07:57:31.353Z,25.15
2022-09-10T08:00:04.479Z,25.18
2022-09-10T08:02:46.916Z,25.22
2022-09-10T08:05:22.439Z,25.28
2022-09-10T08:07:57.218Z,25.27
2022-09-10T08:10:29.506Z,25.33
2022-09-10T08:13:00.596Z,25.45
2022-09-10T08:15:30.621Z,25.53
2022-09-10T08:18:03.108Z,25.44
2022-09-10T08:20:33.761Z,25.49
2022-09-10T08:23:06.587Z,25.62
2022-09-10T08:25:38.106Z,25.82
2022-09-10T08:28:08.571Z,25.99
2022-09-10T08:30:38.778Z,26.01
2022-09-10T08:33:08.918Z,26.01
2022-09-10T08:35:38.806Z,26.06
2022-09-10T08:38:12.850Z,26.09
2022-09-10T08:40:44.919Z,26.18
2022-09-10T08:43:16.180Z,26.11
2022-09-10T08:45:53.844Z,26.24
2022-09-10T08:48:26.650Z,26.40
2022-09-10T08:51:01.720Z,26.36
2022-09-10T08:53:45.940Z,26.30
2022-09-10T08:56:20.144Z,26.36
2022-09-10T08:58:57.254Z,26.38
2022-09-10T09:01:34.763Z,26.42
2022-09-10T09:04:13.389Z,26.54
2022-09-10T09:06:48.284Z,26.71
2022-09-10T09:09:22.055Z,26.82
2022-09-10T09:12:00.109Z,27.07
2022-09-10T09:14:48.071Z,27.33
2022-09-10T09:17:38.740Z,27.49
2022-09-10T09:20:18.395Z,27.48
2022-09-10T09:23:09.709Z,27.58
2022-09-10T09:25:50.950Z,27.77
2022-09-10T09:28:31.593Z,28.02
2022-09-10T09:31:09.480Z,28.29
2022-09-10T09:33:40.524Z,28.46
2022-09-10T09:36:18.533Z,28.60
2022-09-10T09:38:51.685Z,28.77
2022-09-10T09:41:33.102Z,28.78
2022-09-10T09:44:08.321Z,28.88
2022-09-10T09:46:39.029Z,29.12
2022-09-10T09:49:16.676Z,29.31
2022-09-10T09:51:51.874Z,29.55
2022-09-10T09:57:21.866Z,29.23
2022-09-10T09:59:53.185Z,29.44
2022-09-10T10:02:25.746Z,29.75
2022-09-10T10:05:03.501Z,29.84
2022-09-10T10:07:36.343Z,29.53
2022-09-10T10:10:25.067Z,29.78
2022-09-10T10:12:58.323Z,29.40
2022-09-10T10:15:46.285Z,28.89
2022-09-10T10:18:31.863Z,28.53
2022-09-10T10:21:16.543Z,28.30
2022-09-10T10:23:46.709Z,28.15
2022-09-10T10:26:27.687Z,28.52
2022-09-10T10:29:04.216Z,29.07
2022-09-10T10:31:43.538Z,29.08
2022-09-10T10:34:35.421Z,28.95
2022-09-10T10:37:12.295Z,29.03
2022-09-10T10:40:02.135Z,29.02
2022-09-10T10:42:37.123Z,28.67
2022-09-10T10:45:24.470Z,28.24
2022-09-10T10:48:02.555Z,27.76
2022-09-10T10:50:39.856Z,27.47
2022-09-10T10:53:21.599Z,28.35
2022-09-10T10:55:59.837Z,29.62
2022-09-10T10:58:41.725Z,30.89
2022-09-10T11:01:22.817Z,32.04
2022-09-10T11:04:02.330Z,31.63
2022-09-10T11:06:38.452Z,30.62
2022-09-10T11:09:14.721Z,29.58
2022-09-10T11:11:55.294Z,28.65
2022-09-10T11:14:32.748Z,27.99
2022-09-10T11:17:08.670Z,27.67
2022-09-10T11:19:56.398Z,27.83
2022-09-10T11:22:39.798Z,27.69
2022-09-10T11:25:20.661Z,27.64
2022-09-10T11:27:55.371Z,27.79
2022-09-10T11:30:25.298Z,27.81
2022-09-10T11:33:05.063Z,28.09
2022-09-10T11:35:40.189Z,29.11
2022-09-10T11:38:20.740Z,29.14
2022-09-10T11:40:58.361Z,29.66
2022-09-10T11:43:37.283Z,30.28
2022-09-10T11:46:15.188Z,30.92
2022-09-10T11:48:53.443Z,30.91
2022-09-10T11:51:30.595Z,30.67
2022-09-10T11:54:01.058Z,30.35
2022-09-10T11:56:46.203Z,29.74
2022-09-10T11:59:37.437Z,29.04
2022-09-10T12:02:29.050Z,28.50
2022-09-10T12:05:10.977Z,28.13
2022-09-10T12:07:51.120Z,27.82
2022-09-10T12:10:32.271Z,27.60
2022-09-10T12:13:02.567Z,27.46
2022-09-10T12:15:34.539Z,27.35
2022-09-10T12:18:07.458Z,27.26
2022-09-10T12:20:47.272Z,27.21
2022-09-10T12:23:21.073Z,27.21
2022-09-10T12:26:00.606Z,27.22
2022-09-10T12:29:00.456Z,27.17
2022-09-10T12:31:32.598Z,27.20
2022-09-10T12:34:18.006Z,27.15
2022-09-10T12:37:19.166Z,27.03
2022-09-10T12:39:52.416Z,26.93
2022-09-10T12:42:42.750Z,26.70
2022-09-10T12:45:12.556Z,26.63
2022-09-10T12:47:53.062Z,26.58
2022-09-10T12:50:32.353Z,26.56
2022-09-10T12:53:27.001Z,26.68
2022-09-10T12:56:04.862Z,26.73
2022-09-10T12:58:59.965Z,26.89
2022-09-10T13:01:43.199Z,27.09
2022-09-10T13:04:28.535Z,27.14
2022-09-10T13:07:01.871Z,27.07
2022-09-10T13:09:34.447Z,27.00
2022-09-10T13:12:18.998Z,26.81
2022-09-10T13:14:52.880Z,26.64
2022-09-10T13:18:03.272Z,26.45
2022-09-10T13:20:35.635Z,26.34
2022-09-10T13:23:07.043Z,26.22
2022-09-10T13:25:40.554Z,26.15
2022-09-10T13:28:40.972Z,26.00
2022-09-10T13:31:21.812Z,25.94
2022-09-10T13:34:13.416Z,25.93
2022-09-10T13:36:55.614Z,25.80
2022-09-10T13:39:46.182Z,25.74
2022-09-10T13:42:34.997Z,25.67
2022-09-10T13:45:22.643Z,25.62
2022-09-10T13:48:02.403Z,25.61
2022-09-10T13:50:39.557Z,25.61
2022-09-10T13:53:11.347Z,25.63
2022-09-10T13:55:43.022Z,25.66
2022-09-10T13:58:17.516Z,25.68
2022-09-10T14:00:55.645Z,25.73
2022-09-10T14:03:33.116Z,25.75
2022-09-10T14:06:05.349Z,25.80
2022-09-10T14:08:38.923Z,25.83
2022-09-10T14:11:16.916Z,25.86
2022-09-10T14:13:55.500Z,25.92
2022-09-10T14:16:30.374Z,25.96
2022-09-10T14:19:05.482Z,26.00
2022-09-10T14:21:35.586Z,26.06
2022-09-10T14:24:05.797Z,26.08
2022-09-10T14:26:36.050Z,26.06
2022-09-10T14:29:25.519Z,26.04
2022-09-10T14:31:55.433Z,26.03
2022-09-10T14:34:34.989Z,25.98
2022-09-10T14:37:25.487Z,25.99
2022-09-10T14:39:56.582Z,26.00
2022-09-10T14:42:29.647Z,25.95
2022-09-10T14:44:59.609Z,25.92
2022-09-10T14:47:34.845Z,25.89
2022-09-10T14:50:34.698Z,25.85
2022-09-10T14:53:04.607Z,25.82
2022-09-10T14:55:35.196Z,25.77
2022-09-10T14:58:05.053Z,25.69
2022-09-10T15:00:35.945Z,25.63
2022-09-10T15:03:05.933Z,25.55
2022-09-10T15:05:39.346Z,25.49
2022-09-10T15:08:09.157Z,25.50
2022-09-10T15:10:39.696Z,25.52
2022-09-10T15:13:09.918Z,25.56
2022-09-10T15:15:39.938Z,25.60
2022-09-10T15:18:14.994Z,25.64
2022-09-10T15:20:47.450Z,25.67
2022-09-10T15:23:18.399Z,25.71
2022-09-10T15:25:53.573Z,25.70
2022-09-10T15:28:23.455Z,25.70
2022-09-10T15:30:53.376Z,25.67
2022-09-10T15:33:23.236Z,25.65
2022-09-10T15:35:55.734Z,25.63
2022-09-10T15:38:25.761Z,25.64
2022-09-10T15:41:06.611Z,25.63
2022-09-10T15:43:41.365Z,25.62
2022-09-10T15:46:12.209Z,25.64
2022-09-10T15:48:43.326Z,25.63
2022-09-10T15:51:17.774Z,25.64
2022-09-10T15:53:48.127Z,25.65
2022-09-10T15:56:18.922Z,25.68
2022-09-10T15:58:52.114Z,25.70
2022-09-10T16:01:21.958Z,25.72
2022-09-10T16:03:55.414Z,25.71
2022-09-10T16:06:31.268Z,25.71
2022-09-10T16:09:03.236Z,25.73
2022-09-10T16:11:34.426Z,25.74
2022-09-10T16:14:07.006Z,25.75
2022-09-10T16:16:38.231Z,25.77
2022-09-10T16:19:09.320Z,25.78
2022-09-10T16:21:41.894Z,25.80
2022-09-10T16:24:12.971Z,25.82
2022-09-10T16:26:45.494Z,25.84
2022-09-10T16:29:16.940Z,25.85
2022-09-10T16:31:46.897Z,25.86
2022-09-10T16:34:19.565Z,25.84
2022-09-10T16:36:53.113Z,25.83
2022-09-10T16:39:23.192Z,25.81
2022-09-10T16:41:53.688Z,25.82
2022-09-10T16:44:23.644Z,25.80
2022-09-10T16:46:53.727Z,25.79
2022-09-10T16:49:23.550Z,25.75
2022-09-10T16:51:56.056Z,25.72
2022-09-10T16:54:30.180Z,25.69
2022-09-10T16:57:00.003Z,25.69
2022-09-10T16:59:29.893Z,25.65
2022-09-10T17:02:00.679Z,25.63
2022-09-10T17:04:32.484Z,25.60
2022-09-10T17:07:04.928Z,25.56
2022-09-10T17:09:34.707Z,25.53
2022-09-10T17:12:04.960Z,25.50
2022-09-10T17:14:35.000Z,25.47
2022-09-10T17:17:05.436Z,25.43
2022-09-10T17:19:35.233Z,25.40
2022-09-10T17:22:07.608Z,25.33
2022-09-10T17:24:37.469Z,25.31
2022-09-10T17:27:07.723Z,25.25
2022-09-10T17:29:38.600Z,25.21
2022-09-10T17:32:08.791Z,25.16
2022-09-10T17:34:38.601Z,25.13
2022-09-10T17:37:11.191Z,25.10
2022-09-10T17:39:40.996Z,25.07
2022-09-10T17:42:10.851Z,25.04
2022-09-10T17:44:40.605Z,25.01
2022-09-10T17:47:10.422Z,24.99
2022-09-10T17:49:40.605Z,24.96
2022-09-10T17:52:14.643Z,24.91
2022-09-10T17:54:44.409Z,24.89
2022-09-10T17:57:14.835Z,24.85
2022-09-10T17:59:44.673Z,24.81
2022-09-10T18:02:16.888Z,24.77
2022-09-10T18:04:46.796Z,24.76
2022-09-10T18:07:19.334Z,24.72
2022-09-10T18:09:49.185Z,24.72
2022-09-10T18:12:19.068Z,24.70
2022-09-10T18:14:48.904Z,24.67
2022-09-10T18:17:18.749Z,24.62
2022-09-10T18:19:48.620Z,24.58
2022-09-10T18:22:20.997Z,24.55
2022-09-10T18:24:50.811Z,24.54
2022-09-10T18:27:20.776Z,24.51
2022-09-10T18:29:50.766Z,24.49
2022-09-10T18:32:20.621Z,24.44
2022-09-10T18:34:50.594Z,24.42
2022-09-10T18:37:23.081Z,24.39
2022-09-10T18:39:53.776Z,24.37
2022-09-10T18:42:23.620Z,24.33
2022-09-10T18:44:53.523Z,24.30
2022-09-10T18:47:43.407Z,24.29
2022-09-10T18:50:13.968Z,24.28
2022-09-10T18:52:46.480Z,24.23
2022-09-10T18:55:16.229Z,24.23
2022-09-10T18:57:46.246Z,24.20
2022-09-10T19:00:17.086Z,24.17
2022-09-10T19:02:47.454Z,24.17
2022-09-10T19:05:17.436Z,24.15
2022-09-10T19:07:51.860Z,24.15
2022-09-10T19:10:21.662Z,24.16
2022-09-10T19:12:51.964Z,24.15
2022-09-10T19:15:21.717Z,24.14
2022-09-10T19:17:51.634Z,24.11
2022-09-10T19:20:21.948Z,24.09
2022-09-10T19:22:54.381Z,24.06
2022-09-10T19:25:24.293Z,24.04
2022-09-10T19:27:54.110Z,24.01
2022-09-10T19:30:24.131Z,23.99
2022-09-10T19:32:53.945Z,23.98
2022-09-10T19:35:24.001Z,23.95
2022-09-10T19:37:56.340Z,23.90
2022-09-10T19:40:26.110Z,23.89
2022-09-10T19:42:56.324Z,23.85
2022-09-10T19:45:27.307Z,23.82
2022-09-10T19:47:59.362Z,23.79
2022-09-10T19:50:31.006Z,23.75
2022-09-10T19:53:03.390Z,23.69
2022-09-10T19:55:34.257Z,23.68
2022-09-10T19:58:04.135Z,23.67
2022-09-10T20:00:46.278Z,23.65
2022-09-10T20:03:16.925Z,23.63
2022-09-10T20:05:46.669Z,23.59
2022-09-10T20:08:19.161Z,23.55
2022-09-10T20:10:52.331Z,23.53
2022-09-10T20:13:23.739Z,23.50
2022-09-10T20:15:53.919Z,23.44
2022-09-10T20:18:29.340Z,23.38
2022-09-10T20:20:59.343Z,23.38
2022-09-10T20:23:31.724Z,23.36
2022-09-10T20:26:10.841Z,23.34
2022-09-10T20:28:41.409Z,23.34
2022-09-10T20:31:13.238Z,23.28
2022-09-10T20:33:45.345Z,23.27
2022-09-10T20:36:17.714Z,23.26
2022-09-10T20:38:50.550Z,23.23
2022-09-10T20:41:20.783Z,23.22
2022-09-10T20:43:54.316Z,23.17
2022-09-10T20:46:26.384Z,23.17
2022-09-10T20:48:56.934Z,23.15
2022-09-10T20:51:26.815Z,23.12
2022-09-10T20:53:59.217Z,23.09
2022-09-10T20:56:29.016Z,23.08
2022-09-10T20:58:59.525Z,23.08
2022-09-10T21:01:31.138Z,23.04
2022-09-10T21:04:03.072Z,23.03
2022-09-10T21:06:35.282Z,23.01
2022-09-10T21:09:08.856Z,22.98
2022-09-10T21:11:38.908Z,22.97
2022-09-10T21:14:10.309Z,22.95
2022-09-10T21:16:42.388Z,22.93
2022-09-10T21:19:14.944Z,22.90
2022-09-10T21:21:46.250Z,22.89
2022-09-10T21:24:22.580Z,22.87
2022-09-10T21:26:53.719Z,22.86
2022-09-10T21:29:24.553Z,22.88
2022-09-10T21:31:54.846Z,22.85
2022-09-10T21:34:24.675Z,22.85
2022-09-10T21:36:55.316Z,22.82
2022-09-10T21:39:27.726Z,22.76
2022-09-10T21:41:58.568Z,22.70
2022-09-10T21:44:28.611Z,22.66
2022-09-10T21:46:58.430Z,22.61
2022-09-10T21:49:28.207Z,22.59
2022-09-10T21:51:58.139Z,22.57
2022-09-10T21:54:30.603Z,22.55
2022-09-10T21:57:00.409Z,22.55
2022-09-10T21:59:30.168Z,22.55
2022-09-10T22:02:00.595Z,22.53
2022-09-10T22:04:30.603Z,22.48
2022-09-10T22:07:00.351Z,22.45
2022-09-10T22:09:32.691Z,22.40
2022-09-10T22:12:02.465Z,22.38
2022-09-10T22:14:33.263Z,22.37
2022-09-10T22:17:03.368Z,22.35
2022-09-10T22:19:33.107Z,22.34
2022-09-10T22:22:02.889Z,22.35
2022-09-10T22:24:35.257Z,22.32
2022-09-10T22:27:05.042Z,22.33
2022-09-10T22:29:34.791Z,22.32
2022-09-10T22:32:04.907Z,22.31
2022-09-10T22:34:34.687Z,22.31
2022-09-10T22:37:04.573Z,22.31
2022-09-10T22:39:37.261Z,22.30
2022-09-10T22:42:07.643Z,22.28
2022-09-10T22:44:37.412Z,22.26
2022-09-10T22:47:08.113Z,22.25
2022-09-10T22:49:37.915Z,22.23
2022-09-10T22:52:07.709Z,22.22
2022-09-10T22:54:40.047Z,22.21
2022-09-10T22:57:10.987Z,22.20
2022-09-10T22:59:41.336Z,22.21
2022-09-10T23:02:11.070Z,22.18
2022-09-10T23:04:42.706Z,22.17
2022-09-10T23:07:13.059Z,22.18
2022-09-10T23:09:45.407Z,22.14
2022-09-10T23:12:15.144Z,22.15
2022-09-10T23:14:44.911Z,22.14
2022-09-10T23:17:15.541Z,22.14
2022-09-10T23:19:47.317Z,22.15
2022-09-10T23:22:17.069Z,22.15
2022-09-10T23:24:49.365Z,22.13
2022-09-10T23:27:19.128Z,22.12
2022-09-10T23:29:48.900Z,22.10
2022-09-10T23:32:18.868Z,22.07
2022-09-10T23:34:50.530Z,22.07
2022-09-10T23:37:20.391Z,22.07
2022-09-10T23:39:53.029Z,22.07
2022-09-10T23:42:22.906Z,22.06
2022-09-10T23:44:53.615Z,22.05
2022-09-10T23:47:23.412Z,22.01
2022-09-10T23:49:53.338Z,22.02
2022-09-10T23:52:23.285Z,22.01
2022-09-10T23:54:56.031Z,21.99
2022-09-10T23:57:28.001Z,22.00
2022-09-10T23:59:58.376Z,21.99
